Time;durP1;ratioP1;P1;durP2;ratioP2;P2;SDS_P1;SDS_P2;PMS_P1;PMS_P2;Temp;Humidity;BMP_temperature;BMP_pressure;BME280_temperature;BME280_humidity;BME280_pressure;Samples;Min_cycle;Max_cycle;Signal;HPM_P1;HPM_P2
2021/05/20 00:01:46;;;;;;;3.00;2.70;;;;;;;8.59;100.00;100676.84;5072686;28;20206;-73
2021/05/20 00:04:12;;;;;;;2.97;2.67;;;;;;;8.58;100.00;100675.22;5072535;28;20171;-73
2021/05/20 00:06:37;;;;;;;3.03;2.83;;;;;;;8.56;100.00;100677.44;5072426;28;20184;-74
2021/05/20 00:09:04;;;;;;;3.80;2.73;;;;;;;8.51;100.00;100678.28;5072419;28;20219;-73
2021/05/20 00:11:30;;;;;;;2.97;2.80;;;;;;;8.49;100.00;100679.69;5072497;28;20649;-74
2021/05/20 00:13:56;;;;;;;2.33;2.17;;;;;;;8.43;100.00;100678.13;5072148;28;20178;-74
2021/05/20 00:16:22;;;;;;;2.67;2.47;;;;;;;8.40;100.00;100676.00;5072388;28;20229;-73
2021/05/20 00:18:47;;;;;;;1.93;1.83;;;;;;;8.35;100.00;100676.84;5072393;28;20266;-73
2021/05/20 00:21:12;;;;;;;2.50;2.30;;;;;;;8.32;100.00;100678.22;5072285;28;20174;-74
2021/05/20 00:23:38;;;;;;;2.50;2.37;;;;;;;8.31;100.00;100683.97;5072568;28;20175;-73
2021/05/20 00:26:03;;;;;;;2.47;2.07;;;;;;;8.27;100.00;100694.63;5072523;28;20167;-72
2021/05/20 00:38:38;;;;;;;1.73;1.63;;;;;;;8.16;100.00;100704.00;5068661;28;20653;-73
2021/05/20 00:41:04;;;;;;;3.00;2.17;;;;;;;8.16;100.00;100703.19;5068741;28;20200;-72
2021/05/20 00:43:29;;;;;;;2.63;2.47;;;;;;;8.15;100.00;100707.00;5069362;28;20186;-73
2021/05/20 00:45:55;;;;;;;2.47;1.97;;;;;;;8.12;100.00;100705.69;5070942;28;20585;-73
2021/05/20 00:48:21;;;;;;;2.63;2.43;;;;;;;8.10;100.00;100709.78;5070494;28;20179;-73
2021/05/20 00:50:47;;;;;;;4.37;3.03;;;;;;;8.07;100.00;100716.59;5050922;28;20194;-74
2021/05/20 00:53:13;;;;;;;2.63;2.43;;;;;;;8.03;100.00;100708.22;5051154;28;20270;-73
2021/05/20 00:55:42;;;;;;;2.53;1.87;;;;;;;8.00;100.00;100714.22;5050780;28;20252;-73
2021/05/20 00:58:09;;;;;;;2.30;2.10;;;;;;;7.99;100.00;100711.81;5049403;28;20547;-73
2021/05/20 01:00:35;;;;;;;3.33;2.93;;;;;;;7.95;100.00;100708.81;5050790;28;20187;-73
2021/05/20 01:03:01;;;;;;;5.87;4.10;;;;;;;7.90;100.00;100708.06;5050837;28;20182;-73
2021/05/20 01:05:27;;;;;;;2.17;2.07;;;;;;;7.89;100.00;100706.44;5050746;28;20179;-74
2021/05/20 01:07:53;;;;;;;3.33;3.03;;;;;;;7.90;100.00;100711.59;5050843;28;20174;-73
2021/05/20 01:10:18;;;;;;;3.83;3.53;;;;;;;7.90;100.00;100714.31;5066031;28;20178;-73
2021/05/20 01:12:44;;;;;;;3.40;3.20;;;;;;;7.91;100.00;100718.66;5072464;28;20186;-74
2021/05/20 01:15:24;;;;;;;4.37;2.93;;;;;;;7.91;100.00;100726.00;5070580;28;20203;-73
2021/05/20 01:17:52;;;;;;;2.07;1.87;;;;;;;7.90;100.00;100727.13;5070619;28;20202;-73
2021/05/20 01:20:28;;;;;;;3.87;3.57;;;;;;;7.88;100.00;100732.84;5070571;28;20171;-73
2021/05/20 01:23:14;;;;;;;4.07;3.77;;;;;;;7.84;100.00;100723.66;5070575;28;20626;-74
2021/05/20 01:25:42;;;;;;;3.50;2.67;;;;;;;7.81;100.00;100726.94;5070587;28;20220;-74
2021/05/20 01:28:11;;;;;;;7.27;4.27;;;;;;;7.78;100.00;100734.84;5070458;28;20179;-73
2021/05/20 01:30:39;;;;;;;3.60;3.07;;;;;;;7.74;100.00;100737.31;5070508;28;20170;-74
2021/05/20 01:33:05;;;;;;;4.00;3.70;;;;;;;7.79;100.00;100740.00;5070342;28;20173;-73
2021/05/20 01:35:30;;;;;;;3.73;3.43;;;;;;;7.78;100.00;100737.56;5070420;28;20202;-73
2021/05/20 01:38:16;;;;;;;4.27;3.87;;;;;;;7.78;100.00;100732.94;5070591;28;20170;-73
2021/05/20 01:40:49;;;;;;;1.70;1.53;;;;;;;7.77;100.00;100739.47;5070363;28;20704;-73
2021/05/20 01:43:14;;;;;;;1.83;1.73;;;;;;;7.75;100.00;100739.75;5070436;28;20171;-73
2021/05/20 01:45:39;;;;;;;3.63;3.33;;;;;;;7.78;100.00;100743.00;5069185;28;20171;-73
2021/05/20 01:48:05;;;;;;;5.83;3.63;;;;;;;7.76;100.00;100746.00;5070325;28;20693;-73
2021/05/20 01:50:30;;;;;;;6.67;5.87;;;;;;;7.74;100.00;100749.00;5069040;28;20171;-73
2021/05/20 01:52:55;;;;;;;3.43;3.13;;;;;;;7.74;100.00;100746.28;5070848;28;20254;-74
2021/05/20 01:55:21;;;;;;;5.23;4.73;;;;;;;7.74;100.00;100748.19;5073577;28;20570;-74
2021/05/20 01:57:46;;;;;;;4.90;3.20;;;;;;;7.77;100.00;100753.06;5073989;28;20175;-72
2021/05/20 02:00:12;;;;;;;3.83;3.53;;;;;;;7.72;100.00;100755.84;5073929;28;20178;-73
2021/05/20 02:02:37;;;;;;;3.47;3.23;;;;;;;7.67;100.00;100759.41;5074001;28;20257;-72
2021/05/20 02:05:03;;;;;;;1.73;1.63;;;;;;;7.71;100.00;100756.94;5072601;28;20601;-73
2021/05/20 02:07:28;;;;;;;3.67;3.33;;;;;;;7.72;100.00;100758.56;5073815;28;20578;-73
2021/05/20 02:09:54;;;;;;;5.93;4.77;;;;;;;7.71;100.00;100762.38;5072477;28;20253;-72
2021/05/20 02:12:19;;;;;;;1.53;1.43;;;;;;;7.68;100.00;100757.50;5073799;28;20164;-73
2021/05/20 02:14:44;;;;;;;4.40;4.07;;;;;;;7.69;100.00;100753.69;5073557;28;20203;-73
2021/05/20 02:17:09;;;;;;;5.47;5.07;;;;;;;7.66;100.00;100749.59;5073775;28;20257;-72
2021/05/20 02:19:35;;;;;;;5.17;4.20;;;;;;;7.60;100.00;100758.91;5073555;28;20166;-73
2021/05/20 02:22:00;;;;;;;3.80;3.50;;;;;;;7.57;100.00;100753.25;5073492;28;20217;-73
2021/05/20 02:24:25;;;;;;;5.50;5.10;;;;;;;7.57;100.00;100759.50;5072332;28;20236;-74
2021/05/20 02:26:51;;;;;;;4.17;3.87;;;;;;;7.59;100.00;100753.75;5070817;28;20198;-72
2021/05/20 02:29:16;;;;;;;6.83;6.33;;;;;;;7.57;100.00;100759.50;5069993;28;20226;-73
2021/05/20 02:31:41;;;;;;;4.83;3.63;;;;;;;7.56;100.00;100752.44;5073305;28;20182;-73
2021/05/20 02:34:07;;;;;;;6.57;4.33;;;;;;;7.57;100.00;100745.09;5072069;28;20216;-73
2021/05/20 02:36:32;;;;;;;7.13;4.67;;;;;;;7.54;100.00;100754.63;5073260;28;20187;-73
2021/05/20 02:38:57;;;;;;;7.90;4.27;;;;;;;7.56;100.00;100762.50;5073169;28;20214;-73
2021/05/20 02:41:23;;;;;;;3.87;3.50;;;;;;;7.59;100.00;100760.00;5073294;28;20170;-73
2021/05/20 02:43:48;;;;;;;2.57;2.37;;;;;;;7.58;100.00;100769.25;5073215;28;20257;-73
2021/05/20 02:46:13;;;;;;;4.57;4.17;;;;;;;7.56;100.00;100766.03;5073187;28;20189;-73
2021/05/20 02:48:39;;;;;;;7.57;3.43;;;;;;;7.54;100.00;100770.94;5073012;28;20182;-73
2021/05/20 02:51:04;;;;;;;1.83;1.27;;;;;;;7.53;100.00;100774.75;5073175;28;20185;-73
2021/05/20 02:53:30;;;;;;;5.30;4.53;;;;;;;7.53;100.00;100766.59;5073036;28;20177;-72
2021/05/20 02:55:55;;;;;;;5.27;4.77;;;;;;;7.50;100.00;100771.75;5072933;28;20211;-73
2021/05/20 02:58:22;;;;;;;3.80;2.93;;;;;;;7.46;100.00;100766.09;5072808;28;20175;-73
2021/05/20 03:00:48;;;;;;;1.73;1.63;;;;;;;7.46;100.00;100763.38;5072818;28;20222;-73
2021/05/20 03:03:14;;;;;;;4.70;4.30;;;;;;;7.41;100.00;100761.50;5072743;28;20178;-73
2021/05/20 03:05:40;;;;;;;4.03;3.53;;;;;;;7.42;100.00;100768.56;5072163;28;20174;-73
2021/05/20 03:08:05;;;;;;;4.37;3.77;;;;;;;7.40;100.00;100767.22;5072599;28;20204;-73
2021/05/20 03:10:31;;;;;;;3.63;3.07;;;;;;;7.40;100.00;100767.22;5072923;28;20185;-73
2021/05/20 03:12:56;;;;;;;11.20;3.73;;;;;;;7.35;100.00;100775.41;5072751;28;20664;-73
2021/05/20 03:15:22;;;;;;;5.60;4.50;;;;;;;7.35;100.00;100772.69;5072423;28;20662;-72
2021/05/20 03:17:48;;;;;;;5.17;4.67;;;;;;;7.33;100.00;100769.44;5072356;28;20187;-73
2021/05/20 03:20:15;;;;;;;5.00;4.33;;;;;;;7.31;100.00;100777.88;5071306;28;20170;-72
2021/05/20 03:22:40;;;;;;;4.80;4.33;;;;;;;7.27;100.00;100773.28;5072670;28;20573;-72
2021/05/20 03:25:06;;;;;;;5.93;5.33;;;;;;;7.26;100.00;100772.47;5072440;28;20171;-73
2021/05/20 03:27:32;;;;;;;7.80;4.53;;;;;;;7.27;100.00;100770.56;5071051;28;20166;-72
2021/05/20 03:29:57;;;;;;;6.90;6.30;;;;;;;7.26;100.00;100777.09;5072181;28;20531;-73
2021/05/20 03:32:22;;;;;;;5.87;5.40;;;;;;;7.24;100.00;100779.28;5072265;28;20202;-73
2021/05/20 03:34:48;;;;;;;5.67;5.23;;;;;;;7.24;100.00;100773.84;5072205;28;20201;-73
2021/05/20 03:37:13;;;;;;;6.57;6.00;;;;;;;7.24;100.00;100776.56;5072169;28;20171;-73
2021/05/20 03:39:38;;;;;;;5.30;4.87;;;;;;;7.25;100.00;100770.84;5072077;28;20171;-73
2021/05/20 03:42:04;;;;;;;4.83;4.43;;;;;;;7.28;100.00;100769.47;5072057;28;20171;-73
2021/05/20 03:44:30;;;;;;;6.17;5.53;;;;;;;7.24;100.00;100769.22;5072094;28;20166;-72
2021/05/20 03:46:55;;;;;;;8.67;5.00;;;;;;;7.25;100.00;100776.28;5071995;28;20178;-72
2021/05/20 03:49:21;;;;;;;6.17;5.63;;;;;;;7.24;100.00;100771.13;5071803;28;20179;-73
2021/05/20 03:51:46;;;;;;;5.57;5.10;;;;;;;7.25;100.00;100767.31;5071877;28;20174;-72
2021/05/20 03:54:12;;;;;;;6.03;5.23;;;;;;;7.22;100.00;100773.31;5071759;28;20166;-73
2021/05/20 03:56:37;;;;;;;5.97;5.47;;;;;;;7.20;100.00;100772.78;5071711;28;20658;-72
2021/05/20 03:59:03;;;;;;;6.73;5.50;;;;;;;7.19;100.00;100780.13;5071578;28;20235;-73
2021/05/20 04:01:29;;;;;;;5.33;4.83;;;;;;;7.20;100.00;100776.31;5071736;28;20165;-72
2021/05/20 04:03:54;;;;;;;5.77;4.53;;;;;;;7.23;100.00;100777.63;5071594;28;20198;-72
2021/05/20 04:06:19;;;;;;;6.47;5.83;;;;;;;7.23;100.00;100786.59;5071702;28;20175;-73
2021/05/20 04:08:45;;;;;;;5.30;4.80;;;;;;;7.28;100.00;100785.78;5071499;28;20177;-73
2021/05/20 04:11:10;;;;;;;4.57;4.13;;;;;;;7.34;100.00;100784.66;5070185;28;20179;-72
2021/05/20 04:13:40;;;;;;;5.60;5.10;;;;;;;7.38;100.00;100783.00;5071716;28;20184;-75
2021/05/20 04:16:08;;;;;;;6.10;5.60;;;;;;;7.43;100.00;100785.69;5071285;28;20190;-74
2021/05/20 04:18:34;;;;;;;4.80;4.37;;;;;;;7.46;100.00;100790.56;5070373;28;20171;-74
2021/05/20 04:21:00;;;;;;;4.50;4.10;;;;;;;7.46;100.00;100785.13;5070107;28;20178;-74
2021/05/20 04:23:26;;;;;;;8.53;5.80;;;;;;;7.49;100.00;100798.13;5071305;28;20197;-75
2021/05/20 04:25:52;;;;;;;4.90;4.20;;;;;;;7.50;100.00;100791.59;5071291;28;20220;-75
2021/05/20 04:28:18;;;;;;;6.67;3.03;;;;;;;7.53;100.00;100792.97;5071216;28;20654;-75
2021/05/20 04:30:44;;;;;;;6.03;5.30;;;;;;;7.56;100.00;100795.13;5071245;28;20407;-75
2021/05/20 04:33:10;;;;;;;6.67;5.10;;;;;;;7.59;100.00;100798.06;5071175;28;20190;-74
2021/05/20 04:35:36;;;;;;;6.13;5.53;;;;;;;7.61;100.00;100803.22;5071211;28;20198;-75
2021/05/20 04:38:03;;;;;;;5.70;4.03;;;;;;;7.68;100.00;100801.03;5070846;28;20261;-75
2021/05/20 04:40:29;;;;;;;5.23;4.77;;;;;;;7.71;100.00;100809.41;5071068;28;20202;-72
2021/05/20 04:42:54;;;;;;;4.57;4.10;;;;;;;7.75;100.00;100806.94;5070926;28;20631;-74
2021/05/20 04:45:20;;;;;;;6.97;6.33;;;;;;;7.75;100.00;100810.47;5071158;28;20657;-74
2021/05/20 04:47:46;;;;;;;8.20;5.60;;;;;;;7.79;100.00;100820.78;5070897;28;20818;-74
2021/05/20 04:50:13;;;;;;;5.07;4.57;;;;;;;7.83;100.00;100819.13;5070970;28;20224;-74
2021/05/20 04:52:40;;;;;;;4.40;3.97;;;;;;;7.86;100.00;100813.94;5070838;28;20194;-74
2021/05/20 04:55:06;;;;;;;4.10;3.77;;;;;;;7.90;100.00;100828.56;5070827;28;20206;-74
2021/05/20 04:57:31;;;;;;;4.13;3.80;;;;;;;7.91;100.00;100822.03;5070746;28;20178;-75
2021/05/20 04:59:57;;;;;;;6.27;5.63;;;;;;;7.95;100.00;100833.16;5070736;28;20189;-75
2021/05/20 05:02:22;;;;;;;4.83;4.43;;;;;;;7.97;100.00;100831.81;5071192;28;20670;-74
2021/05/20 05:04:47;;;;;;;5.20;3.97;;;;;;;8.02;100.00;100837.19;5071058;28;20615;-74
2021/05/20 05:07:12;;;;;;;3.33;3.10;;;;;;;8.08;100.00;100837.94;5070994;28;20245;-76
2021/05/20 05:09:38;;;;;;;4.57;4.20;;;;;;;8.12;100.00;100840.94;5070607;28;20177;-74
2021/05/20 05:12:03;;;;;;;9.60;4.67;;;;;;;8.19;100.00;100835.97;5070695;28;20178;-74
2021/05/20 05:14:29;;;;;;;4.80;4.37;;;;;;;8.23;100.00;100842.44;5069490;28;20547;-74
2021/05/20 05:16:54;;;;;;;5.57;5.10;;;;;;;8.28;100.00;100839.69;5070974;28;20181;-74
2021/05/20 05:19:20;;;;;;;4.63;3.50;;;;;;;8.30;100.00;100843.75;5070985;28;20166;-74
2021/05/20 05:21:46;;;;;;;4.57;4.10;;;;;;;8.35;99.75;100846.44;5070504;28;20799;-74
2021/05/20 05:24:11;;;;;;;6.70;4.40;;;;;;;8.40;100.00;100844.81;5070906;28;20171;-81
2021/05/20 05:26:37;;;;;;;5.47;3.97;;;;;;;8.43;99.93;100847.75;5069272;28;20239;-73
2021/05/20 05:29:03;;;;;;;3.37;3.07;;;;;;;8.50;100.00;100852.84;5071528;28;20178;-75
2021/05/20 05:31:28;;;;;;;5.37;4.90;;;;;;;8.54;99.79;100852.00;5074580;28;20255;-74
2021/05/20 05:33:54;;;;;;;5.53;4.97;;;;;;;8.60;99.49;100847.31;5074611;28;20175;-74
2021/05/20 05:36:20;;;;;;;6.83;5.30;;;;;;;8.64;99.58;100854.63;5074368;28;20202;-74
2021/05/20 05:38:46;;;;;;;4.57;4.17;;;;;;;8.69;99.69;100848.31;5074299;28;20173;-74
2021/05/20 05:41:12;;;;;;;6.00;5.70;;;;;;;8.78;99.65;100853.94;5074421;28;20179;-73
2021/05/20 05:43:37;;;;;;;5.40;4.90;;;;;;;8.79;98.81;100853.63;5074308;28;20679;-76
2021/05/20 05:46:03;;;;;;;4.90;4.20;;;;;;;8.84;97.77;100848.16;5074333;28;20257;-74
2021/05/20 05:48:28;;;;;;;3.30;3.10;;;;;;;8.88;97.46;100856.56;5074470;28;20206;-74
2021/05/20 05:50:56;;;;;;;3.27;2.93;;;;;;;8.94;97.61;100852.66;5072911;28;20634;-74
2021/05/20 05:53:22;;;;;;;6.20;5.73;;;;;;;8.98;97.88;100858.34;5074110;28;20163;-73
2021/05/20 05:55:47;;;;;;;7.63;6.90;;;;;;;8.99;98.09;100860.78;5074065;28;20209;-73
2021/05/20 05:58:12;;;;;;;3.80;3.50;;;;;;;9.02;97.57;100859.38;5074071;28;20198;-73
2021/05/20 06:00:38;;;;;;;6.07;5.30;;;;;;;9.06;97.79;100872.13;5073956;28;20179;-73
2021/05/20 06:03:04;;;;;;;4.47;4.07;;;;;;;9.11;98.20;100869.38;5073987;28;20171;-74
2021/05/20 06:05:29;;;;;;;4.17;3.87;;;;;;;9.16;98.11;100874.75;5073886;28;20167;-75
2021/05/20 06:07:55;;;;;;;3.17;2.97;;;;;;;9.18;97.84;100883.44;5074010;28;20540;-76
2021/05/20 06:10:22;;;;;;;7.17;5.10;;;;;;;9.19;98.27;100876.88;5074195;28;20178;-73
2021/05/20 06:12:48;;;;;;;4.17;3.77;;;;;;;9.19;98.02;100874.16;5073741;28;20292;-73
2021/05/20 06:15:13;;;;;;;6.33;5.67;;;;;;;9.25;97.84;100869.44;5073632;28;20231;-74
2021/05/20 06:17:39;;;;;;;5.03;4.53;;;;;;;9.33;98.09;100874.25;5073776;28;20220;-73
2021/05/20 06:20:07;;;;;;;1.87;1.77;;;;;;;9.42;97.99;100877.97;5073955;28;20178;-73
2021/05/20 06:22:32;;;;;;;3.93;3.63;;;;;;;9.47;97.54;100875.16;5073682;28;20175;-74
2021/05/20 06:24:58;;;;;;;3.13;2.77;;;;;;;9.46;96.49;100875.47;5073609;28;20179;-75
2021/05/20 06:27:26;;;;;;;2.13;2.03;;;;;;;9.51;97.01;100878.91;5072212;28;20502;-74
2021/05/20 06:29:53;;;;;;;5.67;5.23;;;;;;;9.62;97.83;100878.78;5073269;28;20274;-74
2021/05/20 06:32:18;;;;;;;6.07;4.77;;;;;;;9.65;96.91;100884.47;5072974;28;20204;-74
2021/05/20 06:34:43;;;;;;;6.93;6.33;;;;;;;9.70;96.97;100881.69;5072767;28;20195;-74
2021/05/20 06:37:08;;;;;;;8.70;4.83;;;;;;;9.69;96.43;100877.34;5072846;28;20661;-74
2021/05/20 06:39:34;;;;;;;6.37;5.47;;;;;;;9.87;97.35;100878.44;5071540;28;20195;-74
2021/05/20 06:41:59;;;;;;;6.40;5.83;;;;;;;9.98;96.66;100877.19;5071733;28;20182;-72
2021/05/20 06:44:24;;;;;;;4.23;3.83;;;;;;;10.03;96.45;100885.28;5072730;28;20386;-74
2021/05/20 06:46:50;;;;;;;5.93;5.43;;;;;;;9.94;95.87;100876.13;5071742;28;20183;-73
2021/05/20 06:49:15;;;;;;;6.93;5.13;;;;;;;10.01;96.34;100882.03;5072310;28;20175;-73
2021/05/20 06:51:41;;;;;;;6.10;5.50;;;;;;;10.09;95.54;100880.53;5071300;28;20182;-74
2021/05/20 06:54:07;;;;;;;5.90;5.40;;;;;;;10.16;94.97;100883.72;5072580;28;20295;-74
2021/05/20 06:56:33;;;;;;;6.20;5.60;;;;;;;10.17;94.48;100879.06;5072750;28;20174;-74
2021/05/20 07:01:46;;;;;;;6.10;5.50;;;;;;;10.38;92.25;100874.91;5072584;28;20596;-74
2021/05/20 07:04:12;;;;;;;5.53;5.13;;;;;;;10.60;91.50;100877.00;5072447;28;20220;-74
2021/05/20 07:06:37;;;;;;;2.57;2.23;;;;;;;10.78;90.49;100880.75;5072455;28;20643;-74
2021/05/20 07:09:04;;;;;;;4.93;4.53;;;;;;;10.75;90.70;100879.44;5070788;28;20182;-72
2021/05/20 07:11:30;;;;;;;7.63;6.13;;;;;;;10.72;90.71;100880.88;5072176;28;20565;-74
2021/05/20 07:13:56;;;;;;;4.83;3.83;;;;;;;10.55;89.30;100894.25;5070602;28;20179;-74
2021/05/20 07:16:21;;;;;;;4.33;3.93;;;;;;;10.70;90.76;100880.34;5072081;28;20209;-74
2021/05/20 07:18:47;;;;;;;4.33;3.93;;;;;;;10.78;89.84;100894.44;5071915;28;20212;-74
2021/05/20 07:21:12;;;;;;;5.60;5.10;;;;;;;10.83;88.19;100883.38;5072701;28;20278;-75
2021/05/20 07:23:37;;;;;;;4.43;4.03;;;;;;;11.04;88.06;100887.38;5072269;28;20209;-75
2021/05/20 07:26:03;;;;;;;3.97;3.67;;;;;;;11.24;86.62;100886.13;5072130;28;20304;-75
2021/05/20 07:28:28;;;;;;;4.10;3.70;;;;;;;11.16;84.83;100881.41;5071603;28;20258;-73
2021/05/20 07:30:53;;;;;;;4.13;3.83;;;;;;;11.05;85.70;100883.50;5072308;28;20174;-73
2021/05/20 07:33:21;;;;;;;4.23;3.83;;;;;;;11.05;84.07;100885.44;5072134;28;20171;-75
2021/05/20 07:35:46;;;;;;;4.07;3.77;;;;;;;11.16;85.01;100884.13;5072386;28;20796;-74
2021/05/20 07:38:11;;;;;;;4.57;4.20;;;;;;;11.35;85.93;100882.09;5071983;28;20257;-74
2021/05/20 07:40:37;;;;;;;3.93;3.63;;;;;;;11.42;83.73;100887.13;5070671;28;20173;-75
2021/05/20 07:43:03;;;;;;;3.77;3.47;;;;;;;11.46;82.93;100888.97;5071558;28;20196;-74
2021/05/20 07:45:28;;;;;;;4.33;3.97;;;;;;;11.55;81.83;100883.56;5070312;28;20553;-74
2021/05/20 07:47:53;;;;;;;3.70;3.40;;;;;;;11.59;81.99;100881.84;5071444;28;20179;-74
2021/05/20 07:50:19;;;;;;;3.90;3.60;;;;;;;11.54;81.22;100877.28;5069325;28;20679;-75
2021/05/20 07:52:44;;;;;;;3.37;3.13;;;;;;;11.46;80.67;100888.16;5065817;28;20170;-75
2021/05/20 07:55:11;;;;;;;3.80;3.50;;;;;;;11.50;79.78;100876.28;5071829;28;20190;-75
2021/05/20 07:57:36;;;;;;;2.70;2.43;;;;;;;11.56;80.78;100879.72;5071756;28;20243;-75
2021/05/20 08:00:03;;;;;;;3.70;3.40;;;;;;;11.47;81.30;100867.88;5071500;28;20646;-74
2021/05/20 08:02:41;;;;;;;3.33;3.03;;;;;;;11.50;79.50;100868.06;5071565;28;20206;-74
2021/05/20 08:05:38;;;;;;;2.67;2.10;;;;;;;11.69;78.62;100875.31;5071783;28;20212;-75
2021/05/20 08:08:16;;;;;;;3.37;2.80;;;;;;;11.70;77.92;100863.25;5071653;28;20226;-74
2021/05/20 08:10:49;;;;;;;2.20;2.00;;;;;;;11.89;78.24;100869.44;5071486;28;20206;-74
2021/05/20 08:13:14;;;;;;;3.37;2.20;;;;;;;11.90;77.72;100873.78;5071553;28;20162;-74
2021/05/20 08:15:40;;;;;;;2.20;2.00;;;;;;;11.96;78.18;100863.50;5071104;28;20242;-74
2021/05/20 08:18:05;;;;;;;3.00;2.70;;;;;;;12.03;76.38;100861.16;5071318;28;20171;-73
2021/05/20 08:20:31;;;;;;;1.87;1.77;;;;;;;12.11;75.29;100863.16;5069954;28;20166;-74
2021/05/20 08:22:56;;;;;;;2.07;1.87;;;;;;;12.28;75.58;100865.19;5071334;28;20224;-74
2021/05/20 08:25:22;;;;;;;1.33;1.23;;;;;;;12.37;72.81;100860.59;5071270;28;20183;-74
2021/05/20 08:27:47;;;;;;;0.27;0.27;;;;;;;12.23;70.13;100857.09;5071230;28;20532;-74
2021/05/20 08:30:14;;;;;;;2.03;1.77;;;;;;;12.22;73.07;100859.03;5068376;28;20547;-74
2021/05/20 08:32:39;;;;;;;2.00;1.67;;;;;;;12.28;73.42;100860.50;5070830;28;20187;-74
2021/05/20 08:35:07;;;;;;;2.07;1.87;;;;;;;12.44;71.67;100869.16;5071138;28;20236;-74
2021/05/20 08:37:32;;;;;;;2.07;1.20;;;;;;;12.66;72.35;100862.84;5070633;28;20175;-74
2021/05/20 08:39:57;;;;;;;3.63;1.10;;;;;;;12.79;67.71;100867.44;5070450;28;20174;-73
2021/05/20 08:42:23;;;;;;;1.10;1.00;;;;;;;12.81;68.83;100867.91;5070503;28;20653;-74
2021/05/20 08:44:48;;;;;;;1.20;1.17;;;;;;;12.87;68.08;100863.91;5070997;28;20265;-74
2021/05/20 08:47:14;;;;;;;0.70;0.70;;;;;;;13.01;68.17;100861.84;5070483;28;20179;-74
2021/05/20 08:49:39;;;;;;;1.00;1.00;;;;;;;13.09;66.64;100855.59;5070401;28;20175;-73
2021/05/20 08:52:05;;;;;;;0.83;0.80;;;;;;;13.17;65.68;100861.44;5070549;28;20178;-74
2021/05/20 08:54:31;;;;;;;1.10;0.70;;;;;;;13.29;67.97;100864.38;5070797;28;20267;-74
2021/05/20 08:56:56;;;;;;;0.57;0.57;;;;;;;13.09;64.16;100866.56;5070537;28;20202;-74
2021/05/20 08:59:22;;;;;;;0.87;0.87;;;;;;;13.14;65.97;100860.13;5070762;28;20178;-74
2021/05/20 09:01:50;;;;;;;0.80;0.80;;;;;;;13.31;67.22;100862.16;5070729;28;20179;-75
2021/05/20 09:04:16;;;;;;;1.40;1.30;;;;;;;13.35;67.50;100860.38;5070352;28;20170;-74
2021/05/20 09:06:47;;;;;;;1.57;1.47;;;;;;;13.38;66.65;100855.06;5070717;28;20181;-73
2021/05/20 09:09:55;;;;;;;1.40;1.30;;;;;;;13.50;66.77;100854.44;5070449;28;20162;-74
2021/05/20 09:12:01;;;;;;;2.50;2.30;;;;;;;13.50;66.40;100857.19;5067172;28;20724;-74
2021/05/20 09:14:40;;;;;;;1.20;1.10;;;;;;;13.76;69.24;100854.47;5070107;28;20174;-73
2021/05/20 09:17:13;;;;;;;1.60;1.20;;;;;;;13.80;65.63;100858.19;5070523;28;20185;-73
2021/05/20 09:19:43;;;;;;;0.30;0.30;;;;;;;13.62;64.04;100857.38;5068083;28;20190;-74
2021/05/20 09:22:12;;;;;;;0.93;0.93;;;;;;;13.69;65.44;100860.44;5063985;28;20674;-73
2021/05/20 09:24:50;;;;;;;1.33;1.23;;;;;;;13.67;63.52;100854.44;5069296;28;20210;-74
2021/05/20 09:27:40;;;;;;;1.53;1.47;;;;;;;13.66;66.53;100852.03;5069566;28;20167;-74
2021/05/20 09:30:10;;;;;;;1.90;1.80;;;;;;;13.89;65.13;100847.19;5068664;28;20171;-73
2021/05/20 09:32:41;;;;;;;1.27;1.17;;;;;;;13.79;63.48;100853.00;5069725;28;20170;-73
2021/05/20 09:35:08;;;;;;;1.37;1.27;;;;;;;13.89;66.18;100845.25;5070291;28;20193;-74
2021/05/20 09:37:44;;;;;;;0.73;0.60;;;;;;;14.08;63.92;100847.66;5070561;28;20186;-74
2021/05/20 09:40:10;;;;;;;1.20;1.10;;;;;;;13.97;62.87;100847.19;5070214;28;20188;-74
2021/05/20 09:42:36;;;;;;;0.70;0.70;;;;;;;13.82;62.97;100844.94;5070460;28;20646;-73
2021/05/20 09:45:06;;;;;;;2.07;1.80;;;;;;;13.51;65.34;100842.31;5070145;28;20167;-73
2021/05/20 09:47:32;;;;;;;1.50;1.40;;;;;;;13.43;65.89;100845.84;5070307;28;20262;-73
2021/05/20 09:50:00;;;;;;;0.87;0.87;;;;;;;13.33;63.28;100852.47;5070194;28;20238;-74
2021/05/20 09:52:27;;;;;;;1.27;1.17;;;;;;;13.45;64.28;100848.28;5070166;28;20166;-74
2021/05/20 09:54:54;;;;;;;1.30;1.20;;;;;;;13.80;62.46;100841.69;5070124;28;20194;-73
2021/05/20 09:57:28;;;;;;;1.67;1.13;;;;;;;14.06;62.21;100847.19;5070182;28;20186;-73
2021/05/20 10:00:03;;;;;;;1.37;1.27;;;;;;;14.09;64.62;100838.28;5069743;28;20245;-73
2021/05/20 10:02:29;;;;;;;1.20;1.20;;;;;;;14.25;64.64;100836.66;5068746;28;20178;-73
2021/05/20 10:04:54;;;;;;;1.10;1.10;;;;;;;14.51;61.89;100841.31;5069996;28;20699;-74
2021/05/20 10:07:30;;;;;;;0.57;0.57;;;;;;;14.39;57.83;100843.91;5070002;28;20193;-73
2021/05/20 10:09:56;;;;;;;0.40;0.40;;;;;;;14.10;55.91;100837.16;5068365;28;20170;-74
2021/05/20 10:12:23;;;;;;;0.50;0.50;;;;;;;14.36;58.16;100839.88;5069940;28;20171;-73
2021/05/20 10:14:49;;;;;;;0.50;0.50;;;;;;;14.27;56.68;100844.56;5070594;28;20194;-73
2021/05/20 10:17:18;;;;;;;0.63;0.57;;;;;;;14.44;59.64;100841.78;5072361;28;20265;-73
2021/05/20 10:19:45;;;;;;;1.87;1.57;;;;;;;14.45;60.47;100828.84;5073437;28;20169;-74
2021/05/20 10:22:14;;;;;;;0.63;0.63;;;;;;;14.36;60.06;100841.81;5071243;28;20672;-73
2021/05/20 10:24:43;;;;;;;1.60;1.13;;;;;;;14.28;63.31;100841.47;5073554;28;20638;-73
2021/05/20 10:27:10;;;;;;;0.67;0.67;;;;;;;14.40;60.58;100823.50;5073896;28;20206;-73
2021/05/20 10:29:37;;;;;;;1.77;1.67;;;;;;;14.56;62.00;100825.44;5073683;28;20258;-73
2021/05/20 10:32:03;;;;;;;1.47;1.37;;;;;;;14.88;60.55;100826.75;5073765;28;20189;-74
2021/05/20 10:34:29;;;;;;;0.83;0.80;;;;;;;14.95;55.46;100822.69;5072196;28;20182;-75
2021/05/20 10:36:59;;;;;;;9.10;0.97;;;;;;;14.86;58.18;100817.22;5073795;28;20189;-74
2021/05/20 10:39:25;;;;;;;1.00;1.00;;;;;;;14.72;59.37;100813.88;5073536;28;20171;-75
2021/05/20 10:41:51;;;;;;;0.87;0.87;;;;;;;14.51;58.95;100808.31;5073540;28;20179;-75
2021/05/20 10:44:17;;;;;;;2.17;0.70;;;;;;;14.64;58.02;100810.03;5073599;28;20171;-75
2021/05/20 10:46:58;;;;;;;1.00;1.00;;;;;;;14.66;55.63;100809.72;5070343;28;20666;-74
2021/05/20 10:49:46;;;;;;;1.10;1.00;;;;;;;14.91;58.62;100817.06;5067790;28;20534;-75
2021/05/20 10:52:45;;;;;;;1.27;1.17;;;;;;;15.18;55.75;100813.78;5073246;28;20178;-74
2021/05/20 10:55:15;;;;;;;1.60;1.50;;;;;;;14.95;55.75;100795.97;5072992;28;20642;-73
2021/05/20 10:57:57;;;;;;;0.77;0.77;;;;;;;15.01;54.46;100799.34;5071888;28;20651;-74
2021/05/20 11:00:34;;;;;;;1.00;0.90;;;;;;;14.98;58.17;100802.75;5055389;28;20195;-74
2021/05/20 11:03:00;;;;;;;0.57;0.53;;;;;;;15.21;55.71;100804.09;5072749;28;20239;-73
2021/05/20 11:05:41;;;;;;;0.60;0.60;;;;;;;15.02;56.31;100792.69;5071382;28;20179;-74
2021/05/20 11:08:10;;;;;;;1.00;1.00;;;;;;;15.13;57.38;100785.69;5059261;28;20182;-75
2021/05/20 11:10:37;;;;;;;0.77;0.77;;;;;;;15.06;55.02;100788.16;5069931;28;20186;-74
2021/05/20 11:13:04;;;;;;;0.60;0.60;;;;;;;14.94;54.05;100790.81;5072712;28;20584;-74
2021/05/20 11:15:30;;;;;;;0.43;0.43;;;;;;;14.79;53.05;100790.25;5071628;28;20210;-75
2021/05/20 11:18:32;;;;;;;0.10;0.10;;;;;;;14.97;53.97;100793.69;5072654;28;20266;-75
2021/05/20 11:20:57;;;;;;;0.20;0.20;;;;;;;14.66;51.50;100785.78;5072814;28;20165;-74
2021/05/20 11:23:24;;;;;;;0.93;0.60;;;;;;;14.58;49.58;100790.16;5072544;28;20179;-74
2021/05/20 11:26:01;;;;;;;0.97;0.70;;;;;;;14.86;45.78;100787.75;5071494;28;20552;-73
2021/05/20 11:28:27;;;;;;;0.60;0.60;;;;;;;15.22;50.73;100777.38;5072293;28;20166;-74
2021/05/20 11:30:59;;;;;;;0.67;0.67;;;;;;;15.43;51.96;100778.97;5072731;28;20189;-75
2021/05/20 11:33:26;;;;;;;1.40;1.30;;;;;;;15.64;55.21;100776.28;5072732;28;20209;-75
2021/05/20 11:36:16;;;;;;;1.20;1.13;;;;;;;15.75;55.57;100779.41;5072467;28;20208;-75
2021/05/20 11:38:55;;;;;;;1.20;1.10;;;;;;;15.43;57.54;100778.97;5072134;28;20206;-75
2021/05/20 11:41:21;;;;;;;0.70;0.70;;;;;;;15.16;54.92;100783.06;5072639;28;20159;-75